Time;durP1;ratioP1;P1;durP2;ratioP2;P2;SDS_P1;SDS_P2;PMS_P1;PMS_P2;Temp;Humidity;BMP_temperature;BMP_pressure;BME280_temperature;BME280_humidity;BME280_pressure;Samples;Min_cycle;Max_cycle;Signal;HPM_P1;HPM_P2
2021/01/27 00:00:35;;;;;;;5.75;3.75;;;3.30;99.90;;;;;;5071195;28;20059;-67
2021/01/27 00:03:03;;;;;;;9.35;4.25;;;3.30;99.90;;;;;;5070890;28;20052;-67
2021/01/27 00:05:36;;;;;;;8.30;3.38;;;3.30;99.90;;;;;;5071932;28;20052;-67
2021/01/27 00:08:03;;;;;;;6.88;3.53;;;3.30;99.90;;;;;;5072271;28;20411;-67
2021/01/27 00:10:30;;;;;;;7.35;3.15;;;3.30;99.90;;;;;;5072304;28;20044;-67
2021/01/27 00:12:57;;;;;;;6.13;3.08;;;3.30;99.90;;;;;;5071786;28;20048;-67
2021/01/27 00:15:28;;;;;;;5.30;2.97;;;3.30;99.90;;;;;;5071499;28;20124;-67
2021/01/27 00:17:54;;;;;;;7.20;3.20;;;3.30;99.90;;;;;;5071794;28;20056;-67
2021/01/27 00:20:24;;;;;;;7.30;3.13;;;3.30;99.90;;;;;;5071437;28;20057;-67
2021/01/27 00:22:51;;;;;;;5.75;3.20;;;3.30;99.90;;;;;;5071819;28;20041;-67
2021/01/27 00:25:20;;;;;;;7.50;3.47;;;3.30;99.90;;;;;;5071919;28;20055;-67
2021/01/27 00:27:48;;;;;;;7.40;3.60;;;3.30;99.90;;;;;;5071629;28;20097;-67
2021/01/27 00:30:17;;;;;;;4.82;2.70;;;3.30;99.90;;;;;;5074444;28;20179;-67
2021/01/27 00:32:44;;;;;;;5.10;2.80;;;3.30;99.90;;;;;;5083958;28;20048;-67
2021/01/27 00:35:11;;;;;;;4.20;2.70;;;3.30;99.90;;;;;;5071797;28;20078;-67
2021/01/27 00:37:38;;;;;;;6.45;2.80;;;3.30;99.90;;;;;;5071665;28;20063;-67
2021/01/27 00:40:06;;;;;;;4.10;2.50;;;3.20;99.90;;;;;;5071743;28;20048;-67
2021/01/27 00:42:33;;;;;;;4.97;3.03;;;3.30;99.90;;;;;;5071034;28;20052;-67
2021/01/27 00:44:59;;;;;;;6.25;3.47;;;3.30;99.90;;;;;;5070427;28;20123;-67
2021/01/27 00:47:27;;;;;;;7.35;3.13;;;3.20;99.90;;;;;;5071772;28;20090;-67
2021/01/27 00:49:54;;;;;;;4.72;2.85;;;3.10;99.90;;;;;;5071727;28;20040;-67
2021/01/27 00:52:21;;;;;;;6.13;3.08;;;3.10;99.90;;;;;;5071392;28;20041;-67
2021/01/27 00:54:47;;;;;;;4.03;2.60;;;3.10;99.90;;;;;;5071815;28;20488;-67
2021/01/27 00:57:23;;;;;;;6.10;3.10;;;3.10;99.90;;;;;;5063245;28;20420;-67
2021/01/27 00:59:49;;;;;;;5.85;3.20;;;3.10;99.90;;;;;;5064825;28;20500;-67
2021/01/27 01:02:16;;;;;;;6.57;3.20;;;3.10;99.90;;;;;;5071117;28;20051;-67
2021/01/27 01:04:42;;;;;;;7.75;3.40;;;3.00;99.90;;;;;;5070138;28;20480;-67
2021/01/27 01:07:08;;;;;;;5.63;3.45;;;3.00;99.90;;;;;;5071199;28;20595;-67
2021/01/27 01:09:35;;;;;;;7.07;3.60;;;3.00;99.90;;;;;;5071140;28;20491;-68
2021/01/27 01:12:01;;;;;;;5.50;3.20;;;3.00;99.90;;;;;;5070503;28;20048;-68
2021/01/27 01:14:27;;;;;;;5.47;3.35;;;3.00;99.90;;;;;;5073043;28;20049;-68
2021/01/27 01:16:53;;;;;;;6.28;3.28;;;3.00;99.90;;;;;;5074880;28;20049;-68
2021/01/27 01:19:20;;;;;;;5.13;3.03;;;2.90;99.90;;;;;;5066403;28;20423;-68
2021/01/27 01:21:46;;;;;;;6.95;3.08;;;2.90;99.90;;;;;;5074974;28;20377;-68
2021/01/27 01:24:12;;;;;;;5.88;3.42;;;2.90;99.90;;;;;;5074971;28;20131;-68
2021/01/27 01:26:39;;;;;;;6.65;2.97;;;2.90;99.90;;;;;;5074600;28;20055;-68
2021/01/27 01:29:05;;;;;;;6.63;3.60;;;2.80;99.90;;;;;;5074478;28;20628;-67
2021/01/27 01:31:31;;;;;;;7.28;3.70;;;2.90;99.90;;;;;;5074648;28;20044;-67
2021/01/27 01:33:58;;;;;;;6.50;3.97;;;2.80;99.90;;;;;;5073728;28;20040;-67
2021/01/27 01:36:24;;;;;;;7.78;3.72;;;2.80;99.90;;;;;;5074640;28;20044;-67
2021/01/27 01:38:51;;;;;;;6.93;3.45;;;2.70;99.90;;;;;;5074047;28;20045;-67
2021/01/27 01:41:17;;;;;;;9.02;4.97;;;2.70;99.90;;;;;;5074458;28;20036;-67
2021/01/27 01:43:44;;;;;;;8.57;4.28;;;2.70;99.90;;;;;;5073869;28;20048;-67
2021/01/27 01:46:21;;;;;;;7.80;4.18;;;2.70;99.90;;;;;;5074361;28;20465;-67
2021/01/27 01:48:59;;;;;;;8.98;4.13;;;2.60;99.90;;;;;;5069252;28;20048;-67
2021/01/27 01:51:48;;;;;;;8.20;4.03;;;2.60;99.90;;;;;;5074146;28;20123;-68
2021/01/27 01:54:27;;;;;;;6.43;4.20;;;2.60;99.90;;;;;;5074265;28;20043;-67
2021/01/27 01:57:07;;;;;;;6.25;3.58;;;2.60;99.90;;;;;;5072930;28;20162;-67
2021/01/27 01:59:36;;;;;;;6.68;3.95;;;2.60;99.90;;;;;;5065203;28;20432;-67
2021/01/27 02:02:06;;;;;;;6.47;3.53;;;2.60;99.90;;;;;;5072731;28;20059;-67
2021/01/27 02:04:38;;;;;;;6.70;3.88;;;2.60;99.90;;;;;;5074222;28;20388;-67
2021/01/27 02:07:05;;;;;;;6.40;3.90;;;2.60;99.90;;;;;;5074334;28;20048;-67
2021/01/27 02:09:31;;;;;;;6.93;4.13;;;2.60;99.90;;;;;;5073875;28;20058;-67
2021/01/27 02:12:28;;;;;;;7.18;4.10;;;2.60;99.90;;;;;;5073553;28;20055;-67
2021/01/27 02:15:07;;;;;;;7.28;4.07;;;2.60;99.90;;;;;;5073330;28;20051;-67
2021/01/27 02:18:03;;;;;;;6.65;3.63;;;2.60;99.90;;;;;;5071365;28;20084;-67
2021/01/27 02:20:50;;;;;;;7.10;4.07;;;2.60;99.90;;;;;;5073863;28;20058;-67
2021/01/27 02:23:54;;;;;;;7.93;3.80;;;2.70;99.90;;;;;;5073620;28;20132;-67
2021/01/27 02:26:51;;;;;;;7.82;3.78;;;2.70;99.90;;;;;;5073171;28;20046;-67
2021/01/27 02:29:36;;;;;;;6.55;4.10;;;2.70;99.90;;;;;;5073641;28;20131;-67
2021/01/27 02:32:14;;;;;;;8.70;3.97;;;2.70;99.90;;;;;;5073671;28;20135;-67
2021/01/27 02:34:59;;;;;;;6.63;3.97;;;2.70;99.90;;;;;;5072710;28;20045;-67
2021/01/27 02:37:32;;;;;;;6.07;3.58;;;2.70;99.90;;;;;;5073883;28;20407;-67
2021/01/27 02:40:05;;;;;;;8.10;4.13;;;2.70;99.90;;;;;;5073135;28;20048;-67
2021/01/27 02:42:46;;;;;;;6.45;3.92;;;2.70;99.90;;;;;;5072963;28;20403;-67
2021/01/27 02:45:32;;;;;;;8.15;3.55;;;2.80;99.90;;;;;;5072745;28;20044;-67
2021/01/27 02:48:21;;;;;;;5.22;3.35;;;2.80;99.90;;;;;;5073332;28;20487;-67
2021/01/27 02:50:53;;;;;;;;;;;2.70;99.90;;;;;;5065025;28;20052;-67
2021/01/27 02:53:27;;;;;;;5.53;3.45;;;2.70;99.90;;;;;;5070328;28;19939;-67
2021/01/27 02:56:01;;;;;;;4.90;3.28;;;2.70;99.90;;;;;;5073431;28;20063;-67
2021/01/27 02:58:36;;;;;;;4.78;2.88;;;2.80;99.90;;;;;;5072581;28;20505;-67
2021/01/27 03:01:08;;;;;;;7.22;3.67;;;2.70;99.90;;;;;;5072275;28;20048;-67
2021/01/27 03:03:42;;;;;;;6.88;2.58;;;2.70;99.90;;;;;;5071622;28;20516;-67
2021/01/27 03:06:13;;;;;;;5.10;2.80;;;2.70;99.90;;;;;;5072339;28;20049;-67
2021/01/27 03:08:50;;;;;;;5.00;3.05;;;2.70;99.90;;;;;;5072474;28;20041;-67
2021/01/27 03:11:21;;;;;;;5.10;3.20;;;2.70;99.90;;;;;;5071707;28;20399;-67
2021/01/27 03:13:47;;;;;;;6.22;3.10;;;2.70;99.90;;;;;;5070998;28;20067;-67
2021/01/27 03:16:29;;;;;;;5.63;3.28;;;2.70;99.90;;;;;;5072109;28;20080;-67
2021/01/27 03:19:17;;;;;;;5.72;3.20;;;2.70;99.90;;;;;;5068838;28;20088;-68
2021/01/27 03:21:48;;;;;;;5.87;3.37;;;2.70;99.90;;;;;;5072647;28;20403;-67
2021/01/27 03:24:19;;;;;;;5.15;3.15;;;2.70;99.90;;;;;;5073487;28;20044;-67
2021/01/27 03:27:06;;;;;;;4.15;2.95;;;2.70;99.90;;;;;;5081250;28;20406;-67
2021/01/27 03:29:53;;;;;;;7.93;3.97;;;2.70;99.90;;;;;;5082635;28;20144;-67
2021/01/27 03:32:50;;;;;;;5.07;3.17;;;2.70;99.90;;;;;;5055509;28;20049;-67
2021/01/27 03:35:33;;;;;;;7.03;3.17;;;2.60;99.90;;;;;;5062638;28;20066;-67
2021/01/27 03:38:28;;;;;;;4.15;2.53;;;2.60;99.90;;;;;;5067909;28;20045;-67
2021/01/27 03:41:03;;;;;;;4.57;2.80;;;2.60;99.90;;;;;;5067963;28;20055;-67
2021/01/27 03:43:36;;;;;;;4.63;2.97;;;2.60;99.90;;;;;;5064474;28;20047;-67
2021/01/27 03:46:17;;;;;;;6.07;2.70;;;2.60;99.90;;;;;;5067860;28;20044;-67
2021/01/27 03:49:29;;;;;;;4.72;3.05;;;2.60;99.90;;;;;;5070967;28;20562;-67
2021/01/27 03:52:00;;;;;;;5.10;3.20;;;2.50;99.90;;;;;;5070604;28;20048;-67
2021/01/27 03:54:29;;;;;;;5.65;2.70;;;2.50;99.90;;;;;;5068696;28;20048;-68
2021/01/27 03:57:00;;;;;;;;;;;2.50;99.90;;;;;;5070021;28;20143;-67
2021/01/27 03:59:26;;;;;;;4.47;2.83;;;2.50;99.90;;;;;;5068457;28;19930;-67
2021/01/27 04:01:58;;;;;;;6.65;3.08;;;2.50;99.90;;;;;;5067454;28;20052;-67
2021/01/27 04:04:27;;;;;;;3.90;2.60;;;2.50;99.90;;;;;;5067231;28;20422;-67
2021/01/27 04:06:54;;;;;;;5.43;2.72;;;2.50;99.90;;;;;;5071459;28;20044;-67
2021/01/27 04:09:20;;;;;;;5.60;2.58;;;2.50;99.90;;;;;;5070282;28;20135;-67
2021/01/27 04:11:46;;;;;;;5.80;2.90;;;2.50;99.90;;;;;;5068736;28;20142;-67
2021/01/27 04:14:13;;;;;;;4.22;2.60;;;2.50;99.90;;;;;;5068649;28;20049;-67
2021/01/27 04:16:42;;;;;;;6.38;2.85;;;2.50;99.90;;;;;;5067258;28;20057;-67
2021/01/27 04:19:09;;;;;;;4.85;3.20;;;2.50;99.90;;;;;;5068891;28;20053;-67
2021/01/27 04:21:36;;;;;;;5.18;2.63;;;2.40;99.90;;;;;;5066828;28;20124;-67
2021/01/27 04:24:03;;;;;;;5.68;2.90;;;2.50;99.90;;;;;;5068726;28;20472;-67
2021/01/27 04:26:30;;;;;;;4.05;2.47;;;2.50;99.90;;;;;;5068355;28;20048;-67
2021/01/27 04:28:57;;;;;;;3.78;2.55;;;2.50;99.90;;;;;;5067495;28;20514;-66
2021/01/27 04:31:23;;;;;;;4.65;2.95;;;2.40;99.90;;;;;;5069218;28;20127;-67
2021/01/27 04:33:50;;;;;;;5.72;3.30;;;2.40;99.90;;;;;;5069597;28;20117;-67
2021/01/27 04:36:16;;;;;;;4.05;2.75;;;2.40;99.90;;;;;;5067447;28;20139;-67
2021/01/27 04:38:44;;;;;;;4.63;3.10;;;2.40;99.90;;;;;;5066793;28;20052;-67
2021/01/27 04:41:10;;;;;;;6.35;3.50;;;2.30;99.90;;;;;;5066303;28;20447;-67
2021/01/27 04:43:43;;;;;;;4.97;3.15;;;2.30;99.90;;;;;;5068772;28;20086;-67
2021/01/27 04:46:20;;;;;;;4.97;2.80;;;2.30;99.90;;;;;;5069547;28;20057;-67
2021/01/27 04:49:09;;;;;;;3.85;2.60;;;2.20;99.90;;;;;;5068274;28;20487;-67
2021/01/27 04:52:10;;;;;;;3.88;2.65;;;2.20;99.90;;;;;;5066916;28;20424;-66
2021/01/27 04:54:54;;;;;;;3.90;2.78;;;2.10;99.90;;;;;;5070088;28;20051;-67
2021/01/27 04:57:32;;;;;;;4.05;2.92;;;2.10;99.90;;;;;;5071563;28;20132;-67
2021/01/27 05:00:20;;;;;;;4.80;2.80;;;2.10;99.90;;;;;;5066363;28;20045;-67
2021/01/27 05:03:24;;;;;;;5.65;3.38;;;2.10;99.90;;;;;;5065094;28;20044;-67
2021/01/27 05:05:59;;;;;;;4.60;2.65;;;2.10;99.90;;;;;;5071043;28;20480;-67
2021/01/27 05:09:12;;;;;;;4.47;2.67;;;2.10;99.90;;;;;;5068570;28;20402;-67
2021/01/27 05:11:39;;;;;;;3.88;2.60;;;2.10;99.90;;;;;;5061989;28;20044;-67
2021/01/27 05:14:19;;;;;;;4.30;2.60;;;2.10;99.90;;;;;;5069228;28;20046;-67
2021/01/27 05:16:48;;;;;;;4.38;2.70;;;2.10;99.90;;;;;;5068866;28;20095;-67
2021/01/27 05:19:14;;;;;;;3.45;2.30;;;2.10;99.90;;;;;;5067572;28;20182;-67
2021/01/27 05:21:47;;;;;;;3.45;2.50;;;2.10;99.90;;;;;;5068908;28;20534;-67
2021/01/27 05:24:13;;;;;;;4.80;2.83;;;2.10;99.90;;;;;;5067255;28;20691;-67
2021/01/27 05:26:42;;;;;;;3.38;2.58;;;2.10;99.90;;;;;;5068663;28;20048;-67
2021/01/27 05:29:16;;;;;;;6.82;2.97;;;2.10;99.90;;;;;;5066967;28;20452;-67
2021/01/27 05:32:06;;;;;;;4.70;3.20;;;2.20;99.90;;;;;;5069346;28;20048;-67
2021/01/27 05:34:43;;;;;;;4.88;3.05;;;2.20;99.90;;;;;;5070047;28;20423;-67
2021/01/27 05:37:30;;;;;;;5.85;3.90;;;2.20;99.90;;;;;;5071544;28;20491;-66
2021/01/27 05:40:07;;;;;;;4.32;3.10;;;2.20;99.90;;;;;;5068226;28;20123;-67
2021/01/27 05:42:38;;;;;;;4.68;3.10;;;2.20;99.90;;;;;;5062327;28;20442;-67
2021/01/27 05:45:23;;;;;;;4.20;3.08;;;2.20;99.90;;;;;;5068868;28;20486;-67
2021/01/27 05:47:50;;;;;;;4.53;3.10;;;2.20;99.90;;;;;;5062434;28;20076;-67
2021/01/27 05:50:21;;;;;;;4.75;2.92;;;2.20;99.90;;;;;;5070588;28;20127;-67
2021/01/27 05:52:48;;;;;;;5.63;3.55;;;2.20;99.90;;;;;;5069882;28;20047;-67
2021/01/27 05:55:15;;;;;;;4.57;3.45;;;2.20;99.90;;;;;;5065156;28;20047;-67
2021/01/27 05:57:42;;;;;;;6.68;4.35;;;2.20;99.90;;;;;;5069271;28;20056;-67
2021/01/27 06:00:27;;;;;;;5.32;3.00;;;2.20;99.90;;;;;;5067255;28;20052;-67
2021/01/27 06:02:55;;;;;;;5.07;3.63;;;2.10;99.90;;;;;;5074158;28;20049;-67
2021/01/27 06:05:37;;;;;;;3.75;2.35;;;2.10;99.90;;;;;;5073005;28;20048;-67
2021/01/27 06:08:22;;;;;;;5.78;3.22;;;2.10;99.90;;;;;;5073796;28;20051;-67
2021/01/27 06:10:50;;;;;;;4.80;2.95;;;2.10;99.90;;;;;;5072592;28;20076;-68
2021/01/27 06:13:30;;;;;;;4.10;2.95;;;2.20;99.90;;;;;;5072344;28;20469;-67
2021/01/27 06:15:57;;;;;;;4.38;2.90;;;2.20;99.90;;;;;;5063806;28;20095;-67
2021/01/27 06:18:32;;;;;;;5.38;3.10;;;2.10;99.90;;;;;;5073556;28;20131;-67
2021/01/27 06:21:30;;;;;;;3.58;2.90;;;2.20;99.90;;;;;;5063547;28;20131;-67
2021/01/27 06:24:36;;;;;;;4.22;3.20;;;2.20;99.90;;;;;;5073393;28;20129;-67
2021/01/27 06:27:23;;;;;;;4.25;2.90;;;2.10;99.90;;;;;;5028090;28;20065;-67
2021/01/27 06:30:15;;;;;;;4.88;2.72;;;2.20;99.90;;;;;;5069500;28;20079;-67
2021/01/27 06:33:19;;;;;;;4.07;2.85;;;2.10;99.90;;;;;;5073802;28;20040;-67
2021/01/27 06:36:22;;;;;;;4.65;2.92;;;2.10;99.90;;;;;;5066781;28;20471;-67
2021/01/27 06:39:26;;;;;;;3.75;2.60;;;2.20;99.90;;;;;;5062346;28;20431;-67
2021/01/27 06:42:12;;;;;;;5.93;2.97;;;2.20;99.90;;;;;;5068319;28;20079;-67
2021/01/27 06:45:15;;;;;;;4.32;3.10;;;2.20;99.90;;;;;;5071537;28;20124;-67
2021/01/27 06:47:58;;;;;;;4.35;2.70;;;2.20;99.90;;;;;;5054091;28;20040;-67
2021/01/27 06:51:00;;;;;;;4.00;2.70;;;2.20;99.90;;;;;;5071402;28;20040;-68
2021/01/27 06:53:57;;;;;;;4.30;2.88;;;2.20;99.90;;;;;;5064165;28;20056;-68
2021/01/27 06:56:34;;;;;;;3.63;2.72;;;2.20;99.90;;;;;;5072363;28;20056;-67
2021/01/27 06:59:34;;;;;;;2.78;2.03;;;2.20;99.90;;;;;;5070959;28;20407;-67
2021/01/27 07:02:29;;;;;;;3.95;2.92;;;2.20;99.90;;;;;;5067072;28;20143;-68
2021/01/27 07:05:34;;;;;;;3.42;2.63;;;2.20;99.90;;;;;;5066977;28;20559;-67
2021/01/27 07:08:26;;;;;;;4.07;2.50;;;2.20;99.90;;;;;;5065130;28;20037;-67
2021/01/27 07:11:06;;;;;;;4.07;2.45;;;2.20;99.90;;;;;;5062940;28;20053;-66
2021/01/27 07:19:18;;;;;;;3.38;2.38;;;2.20;99.90;;;;;;5027463;23;20506;-76
2021/01/27 07:22:08;;;;;;;3.65;2.53;;;2.20;99.90;;;;;;5019759;28;20539;-76
2021/01/27 07:24:47;;;;;;;4.28;2.85;;;2.30;99.90;;;;;;5020327;28;20048;-75
2021/01/27 07:27:19;;;;;;;3.40;2.45;;;2.30;99.90;;;;;;5014858;28;20415;-76
2021/01/27 07:30:07;;;;;;;4.72;2.78;;;2.30;99.90;;;;;;5011439;28;21348;-77
2021/01/27 07:33:05;;;;;;;3.83;2.40;;;2.30;99.90;;;;;;5016705;28;20128;-76
2021/01/27 07:35:39;;;;;;;3.58;2.40;;;2.30;99.90;;;;;;5002873;28;20062;-76
2021/01/27 07:38:16;;;;;;;4.60;2.85;;;2.30;99.90;;;;;;5017139;28;20750;-77
2021/01/27 07:40:57;;;;;;;4.43;2.60;;;2.30;99.90;;;;;;5015945;28;20400;-76
2021/01/27 07:43:36;;;;;;;5.70;2.80;;;2.30;99.90;;;;;;5014912;28;20045;-74
2021/01/27 07:46:03;;;;;;;4.35;2.75;;;2.30;99.90;;;;;;5012078;28;20053;-76
2021/01/27 07:48:51;;;;;;;4.18;2.80;;;2.30;99.90;;;;;;5010113;28;20037;-74
2021/01/27 07:51:27;;;;;;;4.22;3.03;;;2.40;99.90;;;;;;5013643;28;20076;-74
2021/01/27 07:54:12;;;;;;;4.38;3.03;;;2.40;99.90;;;;;;5016722;28;20395;-74
2021/01/27 07:56:49;;;;;;;5.28;3.38;;;2.40;99.90;;;;;;5011498;28;20616;-74
2021/01/27 07:59:22;;;;;;;4.25;3.08;;;2.40;99.90;;;;;;5014976;28;20203;-74
2021/01/27 08:01:56;;;;;;;4.82;3.60;;;2.40;99.90;;;;;;5016784;28;20074;-74
2021/01/27 08:04:44;;;;;;;5.45;3.58;;;2.40;99.90;;;;;;5017449;28;20046;-76
2021/01/27 08:07:33;;;;;;;4.03;3.30;;;2.40;99.90;;;;;;5021387;28;20137;-77
2021/01/27 08:10:15;;;;;;;6.07;3.60;;;2.40;99.90;;;;;;5013640;28;20403;-74
2021/01/27 08:12:52;;;;;;;5.60;3.78;;;2.40;99.90;;;;;;5015422;28;20045;-74
2021/01/27 08:15:24;;;;;;;5.28;3.85;;;2.50;99.90;;;;;;5019350;28;20140;-74
2021/01/27 08:17:54;;;;;;;4.82;3.50;;;2.50;99.90;;;;;;5023630;28;20063;-73
2021/01/27 08:20:32;;;;;;;7.20;3.45;;;2.50;99.90;;;;;;5032978;28;20059;-74
2021/01/27 08:23:09;;;;;;;5.60;3.47;;;2.50;99.90;;;;;;5035061;28;20098;-73
2021/01/27 08:26:01;;;;;;;5.15;3.50;;;2.60;99.90;;;;;;5018272;28;20053;-74
2021/01/27 08:28:33;;;;;;;5.88;3.92;;;2.60;99.90;;;;;;5026779;28;20124;-74
2021/01/27 08:31:08;;;;;;;7.07;3.47;;;2.50;99.90;;;;;;5030619;28;20045;-74
2021/01/27 08:33:50;;;;;;;5.78;3.80;;;2.60;99.90;;;;;;5024289;28;20128;-75
2021/01/27 08:36:19;;;;;;;5.55;3.63;;;2.60;99.90;;;;;;5026419;28;20065;-75
2021/01/27 08:38:57;;;;;;;8.02;4.88;;;2.60;99.90;;;;;;4993992;28;20430;-75
2021/01/27 08:41:52;;;;;;;6.30;4.57;;;2.60;99.90;;;;;;5011474;28;20195;-75
2021/01/27 08:44:21;;;;;;;7.47;4.55;;;2.60;99.90;;;;;;4990683;28;20140;-74
2021/01/27 08:47:17;;;;;;;5.45;4.00;;;2.60;99.90;;;;;;5008532;28;20619;-75
2021/01/27 08:49:58;;;;;;;6.75;4.25;;;2.70;99.90;;;;;;5006330;28;20045;-75
2021/01/27 08:52:24;;;;;;;7.43;4.30;;;2.70;99.90;;;;;;5032839;28;20045;-75
2021/01/27 08:54:52;;;;;;;6.55;4.13;;;2.70;99.90;;;;;;5029076;28;20049;-75
2021/01/27 08:57:30;;;;;;;7.28;4.32;;;2.70;99.90;;;;;;5007582;28;20055;-75
2021/01/27 09:00:17;;;;;;;8.35;4.60;;;2.80;99.90;;;;;;5017252;28;20073;-75
2021/01/27 09:02:59;;;;;;;7.45;4.53;;;2.80;99.90;;;;;;5013154;28;20136;-74
2021/01/27 09:05:26;;;;;;;9.60;5.03;;;2.80;99.90;;;;;;5029554;28;20052;-74
2021/01/27 09:08:20;;;;;;;7.65;4.68;;;2.90;99.90;;;;;;5035732;28;20056;-74
2021/01/27 09:11:00;;;;;;;7.50;4.75;;;2.90;99.90;;;;;;5019251;28;20124;-74
2021/01/27 09:13:35;;;;;;;7.50;4.85;;;2.90;99.90;;;;;;5035830;28;20128;-74
2021/01/27 09:16:22;;;;;;;7.68;4.90;;;2.90;99.90;;;;;;5025534;28;20038;-74
2021/01/27 09:18:59;;;;;;;7.75;4.80;;;3.00;99.90;;;;;;5027445;28;20119;-74
2021/01/27 09:21:25;;;;;;;8.05;4.78;;;3.00;99.90;;;;;;5031055;28;20049;-75
2021/01/27 09:24:04;;;;;;;7.65;4.60;;;3.00;99.90;;;;;;5047564;28;20048;-75
2021/01/27 09:26:41;;;;;;;8.15;5.18;;;3.00;99.90;;;;;;5047178;28;20153;-75
2021/01/27 09:29:20;;;;;;;8.60;5.32;;;3.00;99.90;;;;;;5028760;28;20044;-77
2021/01/27 09:31:47;;;;;;;9.80;5.68;;;3.10;99.90;;;;;;5025720;28;20127;-75
2021/01/27 09:34:27;;;;;;;8.43;5.28;;;3.10;99.90;;;;;;5025371;28;20036;-75
2021/01/27 09:37:05;;;;;;;8.82;4.95;;;3.10;99.90;;;;;;5046319;28;20051;-75
2021/01/27 09:39:38;;;;;;;8.23;4.77;;;3.10;99.90;;;;;;5050330;28;20135;-74
2021/01/27 09:42:28;;;;;;;8.15;4.82;;;3.20;99.90;;;;;;5031193;28;20283;-75
2021/01/27 09:45:06;;;;;;;7.25;4.88;;;3.20;99.90;;;;;;5043714;28;20143;-75
2021/01/27 09:47:34;;;;;;;7.80;5.05;;;3.20;99.90;;;;;;5028996;28;20148;-75
2021/01/27 09:50:03;;;;;;;8.75;5.18;;;3.30;99.90;;;;;;5048782;28;20085;-74
2021/01/27 09:52:32;;;;;;;8.15;4.78;;;3.30;99.90;;;;;;5046515;28;20131;-75
2021/01/27 09:55:18;;;;;;;9.00;5.60;;;3.30;99.90;;;;;;5028559;28;20049;-74
2021/01/27 09:57:49;;;;;;;9.55;4.85;;;3.40;99.90;;;;;;5025855;28;20045;-75
2021/01/27 10:00:37;;;;;;;8.93;5.10;;;3.40;99.90;;;;;;5027664;28;20081;-75
2021/01/27 10:03:11;;;;;;;8.27;4.70;;;3.40;99.90;;;;;;5027205;28;20056;-75
2021/01/27 10:05:41;;;;;;;8.90;5.38;;;3.40;99.90;;;;;;5029877;28;20048;-75
2021/01/27 10:08:34;;;;;;;9.82;5.53;;;3.50;99.90;;;;;;5030405;28;20131;-75
2021/01/27 10:11:21;;;;;;;8.68;4.95;;;3.50;99.90;;;;;;5031029;28;20168;-76
2021/01/27 10:13:48;;;;;;;9.02;4.97;;;3.50;99.90;;;;;;5045602;28;20485;-74
2021/01/27 10:16:14;;;;;;;8.27;5.07;;;3.50;99.90;;;;;;5052469;28;20139;-74
2021/01/27 10:18:44;;;;;;;8.68;4.63;;;3.60;99.90;;;;;;5046268;28;20515;-74
2021/01/27 10:21:15;;;;;;;9.20;4.93;;;3.60;99.90;;;;;;5050467;28;20143;-74
2021/01/27 10:23:44;;;;;;;9.60;5.82;;;3.70;99.90;;;;;;5031112;28;20040;-74
2021/01/27 10:26:29;;;;;;;9.35;5.38;;;3.70;99.90;;;;;;5048354;28;20057;-74
2021/01/27 10:29:30;;;;;;;10.07;5.10;;;3.70;99.90;;;;;;5033919;28;20476;-74
2021/01/27 10:31:57;;;;;;;9.35;4.90;;;3.70;99.90;;;;;;5054853;28;20064;-73
2021/01/27 10:34:40;;;;;;;9.88;5.55;;;3.80;99.90;;;;;;5052567;28;20049;-74
2021/01/27 10:37:25;;;;;;;9.00;5.15;;;3.80;99.90;;;;;;5029625;28;20041;-75
2021/01/27 10:40:12;;;;;;;9.45;5.45;;;3.80;99.90;;;;;;5049962;28;20045;-75
2021/01/27 10:42:47;;;;;;;11.30;5.53;;;3.90;99.90;;;;;;5049594;28;20132;-75
2021/01/27 10:45:37;;;;;;;9.73;5.88;;;3.90;99.90;;;;;;5030458;28;20049;-73
2021/01/27 10:48:23;;;;;;;8.90;5.13;;;3.90;99.90;;;;;;5033714;28;20045;-74
2021/01/27 10:50:54;;;;;;;10.27;6.00;;;4.00;99.90;;;;;;5055733;28;20482;-73
2021/01/27 10:53:30;;;;;;;;;;;4.00;99.90;;;;;;5035434;28;20495;-74
2021/01/27 10:55:57;;;;;;;8.85;5.05;;;4.00;99.90;;;;;;5028782;28;20448;-73
2021/01/27 10:58:24;;;;;;;9.38;5.13;;;4.00;99.90;;;;;;5047169;28;20052;-74
2021/01/27 11:00:51;;;;;;;11.15;6.03;;;4.10;99.90;;;;;;5027925;28;20059;-74
2021/01/27 11:03:17;;;;;;;11.07;5.90;;;4.10;99.90;;;;;;5044116;28;20144;-73
2021/01/27 11:05:45;;;;;;;9.25;5.32;;;4.10;99.90;;;;;;5026680;28;20041;-73
2021/01/27 11:08:29;;;;;;;11.90;5.72;;;4.20;99.90;;;;;;5023054;28;20044;-73
2021/01/27 11:10:58;;;;;;;11.63;6.25;;;4.20;99.90;;;;;;5042315;28;20047;-73
2021/01/27 11:13:25;;;;;;;10.40;5.50;;;4.30;99.90;;;;;;5033988;28;20492;-74
2021/01/27 11:15:51;;;;;;;9.18;5.28;;;4.40;99.90;;;;;;5046603;28;20380;-74
2021/01/27 11:18:18;;;;;;;11.63;6.13;;;4.40;99.90;;;;;;5038395;28;20138;-74
2021/01/27 11:20:48;;;;;;;11.60;6.57;;;4.50;99.90;;;;;;5029118;28;20049;-73
2021/01/27 11:23:20;;;;;;;11.00;6.20;;;4.50;99.90;;;;;;5028633;28;20107;-73
2021/01/27 11:25:53;;;;;;;;;;;4.60;99.90;;;;;;5025339;28;20500;-73
2021/01/27 11:28:21;;;;;;;10.82;5.70;;;4.70;99.90;;;;;;5029800;28;20397;-74
2021/01/27 11:30:50;;;;;;;11.23;6.20;;;4.70;99.90;;;;;;5013852;28;20133;-75
2021/01/27 11:33:21;;;;;;;10.82;6.20;;;4.80;99.90;;;;;;5011653;28;20050;-75
2021/01/27 11:35:51;;;;;;;10.52;5.70;;;4.80;99.90;;;;;;5009818;28;20492;-75
2021/01/27 11:38:18;;;;;;;10.05;5.68;;;4.90;99.90;;;;;;5012163;28;20049;-76
2021/01/27 11:40:52;;;;;;;9.48;5.53;;;4.90;99.90;;;;;;5022762;28;20484;-76
2021/01/27 11:43:19;;;;;;;8.90;5.70;;;5.00;99.90;;;;;;5029740;28;20187;-75
2021/01/27 11:45:45;;;;;;;9.70;5.65;;;5.00;99.90;;;;;;5006611;28;20050;-73
2021/01/27 11:48:31;;;;;;;11.45;5.43;;;5.10;99.90;;;;;;5017327;28;20044;-74
2021/01/27 11:50:58;;;;;;;10.60;5.72;;;5.00;99.90;;;;;;5021104;28;20099;-74
2021/01/27 11:53:24;;;;;;;9.93;5.68;;;5.10;99.90;;;;;;5024198;28;20152;-75
2021/01/27 11:55:50;;;;;;;10.48;5.65;;;5.10;99.90;;;;;;5024027;28;20128;-73
2021/01/27 11:58:18;;;;;;;10.77;5.90;;;5.20;99.90;;;;;;5029612;28;20048;-73
2021/01/27 12:00:44;;;;;;;11.20;6.00;;;5.20;99.90;;;;;;5018813;28;20342;-73
2021/01/27 12:03:12;;;;;;;9.60;5.93;;;5.20;99.90;;;;;;5025545;28;20067;-73
2021/01/27 12:05:38;;;;;;;9.30;5.50;;;5.30;99.90;;;;;;5034107;28;20054;-74
2021/01/27 12:08:10;;;;;;;11.02;5.72;;;5.30;99.90;;;;;;5008502;28;20048;-74
2021/01/27 12:10:37;;;;;;;10.77;6.30;;;5.40;99.90;;;;;;5006055;28;20042;-75
2021/01/27 12:13:11;;;;;;;10.98;6.00;;;5.40;99.90;;;;;;5024953;28;20064;-74
2021/01/27 12:15:38;;;;;;;10.73;5.82;;;5.40;99.90;;;;;;5005698;28;20069;-74
2021/01/27 12:18:07;;;;;;;10.15;5.82;;;5.40;99.90;;;;;;5036039;28;20561;-74
2021/01/27 12:20:38;;;;;;;11.52;6.38;;;5.50;99.90;;;;;;5027941;28;20049;-74
2021/01/27 12:23:05;;;;;;;10.57;5.88;;;5.50;99.90;;;;;;5033564;28;20059;-74
2021/01/27 12:25:36;;;;;;;13.55;6.82;;;5.50;99.90;;;;;;5032698;28;20052;-75
2021/01/27 12:28:02;;;;;;;10.57;6.50;;;5.60;99.90;;;;;;5029559;28;20383;-74
2021/01/27 12:30:29;;;;;;;11.30;6.05;;;5.60;99.90;;;;;;5042443;28;20366;-74
2021/01/27 12:32:56;;;;;;;11.75;6.25;;;5.60;99.90;;;;;;5030288;28;20048;-74
2021/01/27 12:35:29;;;;;;;12.15;6.40;;;5.70;99.90;;;;;;5043781;28;20044;-74
2021/01/27 12:37:55;;;;;;;10.65;6.15;;;5.70;99.90;;;;;;5032639;28;20415;-74
2021/01/27 12:40:22;;;;;;;10.82;6.00;;;5.70;99.90;;;;;;5034863;28;20152;-73
2021/01/27 12:42:49;;;;;;;11.05;6.13;;;5.80;99.90;;;;;;5030089;28;20055;-74
2021/01/27 12:45:22;;;;;;;12.20;6.63;;;5.80;99.90;;;;;;5042054;28;20121;-74
2021/01/27 12:47:48;;;;;;;13.40;6.88;;;5.80;99.90;;;;;;5029190;28;20139;-74
2021/01/27 12:50:15;;;;;;;13.35;6.57;;;5.90;99.90;;;;;;5027863;28;20055;-73
2021/01/27 12:52:42;;;;;;;10.52;6.03;;;5.90;99.90;;;;;;5045722;28;20053;-73
2021/01/27 12:55:12;;;;;;;12.30;6.68;;;5.90;99.90;;;;;;5041307;28;20565;-73
2021/01/27 12:57:40;;;;;;;12.55;6.10;;;5.90;99.90;;;;;;5023543;28;20136;-73
2021/01/27 13:00:15;;;;;;;13.23;7.15;;;5.90;99.90;;;;;;5028917;28;20152;-74
2021/01/27 13:02:41;;;;;;;14.77;7.07;;;5.90;99.90;;;;;;5047781;28;20479;-74
2021/01/27 13:05:08;;;;;;;13.63;6.97;;;5.90;99.90;;;;;;5021167;28;20049;-73
2021/01/27 13:07:34;;;;;;;13.48;7.07;;;5.90;99.90;;;;;;5026407;28;20531;-74
2021/01/27 13:10:00;;;;;;;11.93;6.75;;;5.90;99.90;;;;;;5035764;28;20133;-73
2021/01/27 13:12:27;;;;;;;13.70;7.45;;;6.00;99.90;;;;;;5030998;28;20132;-74
2021/01/27 13:14:53;;;;;;;11.52;6.60;;;5.90;99.90;;;;;;5045026;28;20133;-74
2021/01/27 13:17:40;;;;;;;13.75;7.45;;;6.00;99.90;;;;;;5025725;28;20078;-74
2021/01/27 13:20:09;;;;;;;12.75;7.00;;;6.00;99.90;;;;;;5044908;28;20661;-74
2021/01/27 13:22:36;;;;;;;12.40;6.97;;;6.00;99.90;;;;;;5022266;28;20472;-73
2021/01/27 13:25:03;;;;;;;15.77;7.80;;;6.00;99.90;;;;;;5026177;28;20053;-77
2021/01/27 13:27:30;;;;;;;15.82;7.85;;;6.10;99.90;;;;;;5042366;28;20468;-77
2021/01/27 13:29:56;;;;;;;14.45;7.78;;;6.10;99.90;;;;;;5012636;28;20047;-77
2021/01/27 13:32:22;;;;;;;17.33;8.15;;;6.10;99.90;;;;;;5045981;28;20041;-77
2021/01/27 13:34:48;;;;;;;16.20;7.90;;;6.20;99.90;;;;;;5035603;28;20169;-77
2021/01/27 13:37:24;;;;;;;17.15;8.73;;;6.20;99.90;;;;;;5043980;28;20403;-76
2021/01/27 13:39:50;;;;;;;15.52;8.70;;;6.20;99.90;;;;;;5048171;28;20567;-76
2021/01/27 13:42:16;;;;;;;16.23;8.00;;;6.20;99.90;;;;;;5049130;28;20503;-77